createdAt,value
2023-04-24T00:02:28.739Z,5.37
2023-04-24T00:04:57.692Z,8.07
2023-04-24T00:07:26.281Z,6.73
2023-04-24T00:09:55.346Z,5.50
2023-04-24T00:12:23.800Z,6.63
2023-04-24T00:14:52.757Z,8.20
2023-04-24T00:17:22.910Z,6.07
2023-04-24T00:19:52.283Z,8.37
2023-04-24T00:22:21.779Z,5.87
2023-04-24T00:24:50.381Z,8.33
2023-04-24T00:27:18.824Z,6.43
2023-04-24T00:29:47.659Z,8.23
2023-04-24T00:32:16.330Z,7.17
2023-04-24T00:34:46.267Z,7.53
2023-04-24T00:37:14.692Z,9.77
2023-04-24T00:39:43.858Z,7.33
2023-04-24T00:42:12.573Z,3.93
2023-04-24T00:44:40.994Z,7.00
2023-04-24T00:47:09.437Z,5.67
2023-04-24T00:49:37.996Z,5.20
2023-04-24T00:52:09.810Z,4.27
2023-04-24T00:54:38.612Z,3.70
2023-04-24T00:57:07.069Z,5.10
2023-04-24T00:59:35.496Z,3.13
2023-04-24T01:02:04.255Z,3.70
2023-04-24T01:04:33.060Z,6.23
2023-04-24T01:07:01.957Z,4.00
2023-04-24T01:09:32.001Z,5.30
2023-04-24T01:12:01.521Z,2.50
2023-04-24T01:14:30.142Z,2.83
2023-04-24T01:16:58.617Z,2.80
2023-04-24T01:19:27.315Z,6.50
2023-04-24T01:21:56.545Z,3.90
2023-04-24T01:24:26.389Z,1.67
2023-04-24T01:26:54.835Z,5.47
2023-04-24T01:29:23.496Z,2.53
2023-04-24T01:31:52.130Z,3.17
2023-04-24T01:34:20.825Z,4.23
2023-04-24T01:36:49.444Z,2.97
2023-04-24T01:39:18.013Z,4.97
2023-04-24T01:41:47.728Z,3.77
2023-04-24T01:44:16.120Z,5.20
2023-04-24T01:46:44.599Z,3.80
2023-04-24T01:49:13.185Z,2.53
2023-04-24T01:51:41.762Z,6.23
2023-04-24T01:54:10.148Z,2.67
2023-04-24T01:56:38.829Z,4.03
2023-04-24T01:59:09.057Z,5.97
2023-04-24T02:01:38.156Z,4.67
2023-04-24T02:04:06.855Z,4.50
2023-04-24T02:06:35.642Z,4.20
2023-04-24T02:09:04.130Z,5.00
2023-04-24T02:11:32.713Z,4.83
2023-04-24T02:14:01.111Z,4.73
2023-04-24T02:16:33.295Z,4.43
2023-04-24T02:19:02.080Z,5.73
2023-04-24T02:21:31.781Z,5.83
2023-04-24T02:24:00.374Z,3.80
2023-04-24T02:26:28.986Z,5.20
2023-04-24T02:28:57.520Z,2.47
2023-04-24T02:31:26.109Z,4.03
2023-04-24T02:33:56.111Z,4.23
2023-04-24T02:36:24.574Z,3.63
2023-04-24T02:38:53.243Z,4.80
2023-04-24T02:41:21.889Z,5.63
2023-04-24T02:43:50.712Z,3.80
2023-04-24T02:46:19.157Z,4.63
2023-04-24T02:48:47.604Z,5.13
2023-04-24T02:51:17.448Z,5.40
2023-04-24T02:53:46.101Z,5.33
2023-04-24T02:56:14.763Z,8.87
2023-04-24T02:58:43.340Z,5.63
2023-04-24T03:01:12.046Z,6.50
2023-04-24T03:03:41.933Z,5.47
2023-04-24T03:06:10.610Z,7.30
2023-04-24T03:08:40.634Z,5.50
2023-04-24T03:11:09.137Z,6.73
2023-04-24T03:13:37.676Z,4.70
2023-04-24T03:16:06.771Z,5.47
2023-04-24T03:18:38.061Z,6.47
2023-04-24T03:21:06.544Z,3.57
2023-04-24T03:23:35.012Z,3.77
2023-04-24T03:26:04.827Z,2.33
2023-04-24T03:28:33.252Z,3.87
2023-04-24T03:31:01.957Z,2.90
2023-04-24T03:33:30.759Z,2.97
2023-04-24T03:35:59.214Z,4.27
2023-04-24T03:38:27.684Z,4.63
2023-04-24T03:40:56.463Z,6.83
2023-04-24T03:43:28.401Z,7.37
2023-04-24T03:45:56.830Z,4.47
2023-04-24T03:48:25.717Z,4.13
2023-04-24T03:50:54.325Z,3.03
2023-04-24T03:53:26.315Z,3.30
2023-04-24T03:55:54.836Z,6.43
2023-04-24T03:58:23.208Z,4.73
2023-04-24T04:00:53.156Z,5.93
2023-04-24T04:03:22.074Z,4.90
2023-04-24T04:05:50.765Z,8.50
2023-04-24T04:08:19.224Z,3.77
2023-04-24T04:10:47.689Z,11.87
2023-04-24T04:13:16.158Z,8.83
2023-04-24T04:15:44.708Z,8.97
2023-04-24T04:18:14.840Z,12.63
2023-04-24T04:20:43.281Z,14.67
2023-04-24T04:23:11.750Z,15.97
2023-04-24T04:25:40.191Z,11.57
2023-04-24T04:28:08.697Z,10.77
2023-04-24T04:30:39.284Z,13.30
2023-04-24T04:33:07.833Z,13.77
2023-04-24T04:35:37.802Z,17.20
2023-04-24T04:38:09.434Z,15.77
2023-04-24T04:40:37.860Z,25.67
2023-04-24T04:43:07.495Z,24.47
2023-04-24T04:45:36.504Z,21.40
2023-04-24T04:48:05.128Z,23.07
2023-04-24T04:50:33.641Z,28.73
2023-04-24T04:53:03.332Z,29.67
2023-04-24T04:55:31.818Z,23.93
2023-04-24T04:58:01.323Z,29.23
2023-04-24T05:00:30.074Z,34.53
2023-04-24T05:03:06.159Z,30.03
2023-04-24T05:05:46.837Z,22.13
2023-04-24T05:08:26.644Z,22.97
2023-04-24T05:10:55.914Z,23.87
2023-04-24T05:15:55.928Z,25.97
2023-04-24T05:18:24.335Z,32.87
2023-04-24T05:20:52.710Z,23.50
2023-04-24T05:23:22.698Z,21.53
2023-04-24T05:25:51.267Z,28.80
2023-04-24T05:28:19.868Z,29.50
2023-04-24T05:30:48.622Z,21.97
2023-04-24T05:33:17.060Z,30.60
2023-04-24T05:35:47.772Z,39.33
2023-04-24T05:38:19.005Z,28.63
2023-04-24T05:40:48.842Z,22.97
2023-04-24T05:43:17.322Z,29.70
2023-04-24T05:45:45.723Z,25.07
2023-04-24T05:48:14.293Z,29.47
2023-04-24T05:50:42.878Z,27.47
2023-04-24T05:53:11.746Z,27.93
2023-04-24T05:55:40.374Z,26.47
2023-04-24T05:58:10.853Z,33.00
2023-04-24T06:00:40.857Z,23.13
2023-04-24T06:03:09.545Z,27.80
2023-04-24T06:05:38.232Z,28.60
2023-04-24T06:08:07.322Z,30.80
2023-04-24T06:10:36.235Z,29.17
2023-04-24T06:13:04.831Z,22.57
2023-04-24T06:15:34.640Z,28.40
2023-04-24T06:18:03.424Z,24.23
2023-04-24T06:20:33.116Z,19.90
2023-04-24T06:23:01.727Z,28.13
2023-04-24T06:25:30.431Z,20.20
2023-04-24T06:27:59.400Z,29.63
2023-04-24T06:30:29.571Z,24.90
2023-04-24T06:33:12.880Z,23.87
2023-04-24T06:35:48.852Z,27.60
2023-04-24T06:38:17.726Z,29.10
2023-04-24T06:40:46.335Z,26.60
2023-04-24T06:43:16.111Z,29.70
2023-04-24T06:45:45.385Z,28.17
2023-04-24T06:48:16.327Z,26.73
2023-04-24T06:50:44.767Z,26.93
2023-04-24T06:53:16.407Z,23.63
2023-04-24T06:55:45.830Z,19.30
2023-04-24T06:58:15.530Z,24.63
2023-04-24T07:00:43.870Z,15.67
2023-04-24T07:03:12.366Z,20.37
2023-04-24T07:05:42.700Z,21.30
2023-04-24T07:08:12.481Z,24.43
2023-04-24T07:10:44.351Z,24.03
2023-04-24T07:13:15.923Z,13.03
2023-04-24T07:15:44.592Z,22.23
2023-04-24T07:18:13.173Z,23.77
2023-04-24T07:20:43.182Z,19.30
2023-04-24T07:23:11.767Z,18.67
2023-04-24T07:25:40.715Z,20.20
2023-04-24T07:28:09.659Z,19.30
2023-04-24T07:30:38.182Z,14.67
2023-04-24T07:33:07.867Z,14.17
2023-04-24T07:35:36.818Z,13.57
2023-04-24T07:38:06.940Z,17.93
2023-04-24T07:40:35.621Z,17.23
2023-04-24T07:43:04.214Z,16.53
2023-04-24T07:45:34.755Z,12.67
2023-04-24T07:48:03.317Z,12.70
2023-04-24T07:50:31.939Z,12.17
2023-04-24T07:53:00.458Z,16.57
2023-04-24T07:55:30.245Z,10.97
2023-04-24T07:57:58.650Z,10.83
2023-04-24T08:00:27.155Z,9.33
2023-04-24T08:02:55.924Z,11.80
2023-04-24T08:05:26.672Z,19.17
2023-04-24T08:07:55.544Z,9.63
2023-04-24T08:10:23.990Z,11.90
2023-04-24T08:12:53.735Z,6.43
2023-04-24T08:15:22.174Z,12.53
2023-04-24T08:17:50.951Z,10.63
2023-04-24T08:20:19.455Z,11.07
2023-04-24T08:22:49.770Z,7.73
2023-04-24T08:25:19.088Z,8.73
2023-04-24T08:27:47.591Z,8.73
2023-04-24T08:30:17.728Z,10.23
2023-04-24T08:32:46.228Z,8.90
2023-04-24T08:35:14.789Z,8.73
2023-04-24T08:37:43.253Z,6.20
2023-04-24T08:40:15.201Z,4.83
2023-04-24T08:42:45.470Z,5.20
2023-04-24T08:45:14.414Z,5.73
2023-04-24T08:47:45.328Z,5.47
2023-04-24T08:50:14.122Z,7.93
2023-04-24T08:52:42.659Z,4.63
2023-04-24T08:55:11.343Z,5.33
2023-04-24T08:57:41.473Z,7.13
2023-04-24T09:00:13.826Z,3.67
2023-04-24T09:02:45.155Z,9.10
2023-04-24T09:05:13.797Z,6.57
2023-04-24T09:07:42.377Z,5.83
2023-04-24T09:10:11.490Z,5.17
2023-04-24T09:12:48.715Z,6.53
2023-04-24T09:15:18.242Z,3.87
2023-04-24T09:17:48.557Z,4.80
2023-04-24T09:20:17.387Z,8.07
2023-04-24T09:22:46.107Z,5.60
2023-04-24T09:25:14.921Z,5.63
2023-04-24T09:27:46.473Z,4.90
2023-04-24T09:30:15.521Z,4.80
2023-04-24T09:32:44.118Z,3.70
2023-04-24T09:35:14.915Z,4.97
2023-04-24T09:37:43.804Z,5.70
2023-04-24T09:40:15.809Z,4.60
2023-04-24T09:42:46.656Z,7.13
2023-04-24T09:45:15.907Z,4.17
2023-04-24T09:47:44.974Z,7.97
2023-04-24T09:50:19.595Z,17.40
2023-04-24T09:52:49.865Z,11.17
2023-04-24T09:55:19.608Z,6.00
2023-04-24T09:57:52.315Z,2.97
2023-04-24T10:00:23.532Z,4.03
2023-04-24T10:02:58.630Z,4.20
2023-04-24T10:05:30.054Z,5.23
2023-04-24T10:08:03.840Z,5.97
2023-04-24T10:10:32.418Z,7.73
2023-04-24T10:13:00.883Z,6.40
2023-04-24T10:15:29.605Z,12.00
2023-04-24T10:17:58.230Z,11.13
2023-04-24T10:20:27.316Z,9.30
2023-04-24T10:22:57.359Z,11.40
2023-04-24T10:25:26.441Z,8.10
2023-04-24T10:27:58.315Z,9.07
2023-04-24T10:30:26.742Z,11.77
2023-04-24T10:32:55.303Z,4.27
2023-04-24T10:35:27.779Z,5.57
2023-04-24T10:37:59.205Z,8.27
2023-04-24T10:40:28.944Z,9.10
2023-04-24T10:42:58.695Z,3.93
2023-04-24T10:45:27.781Z,8.50
2023-04-24T10:47:57.071Z,6.83
2023-04-24T10:50:25.964Z,7.60
2023-04-24T10:52:55.722Z,8.70
2023-04-24T10:55:44.218Z,4.17
2023-04-24T10:58:12.720Z,3.87
2023-04-24T11:00:41.418Z,4.83
2023-04-24T11:03:10.102Z,3.30
2023-04-24T11:05:53.685Z,2.30
2023-04-24T11:08:26.956Z,2.80
2023-04-24T11:11:04.142Z,4.73
2023-04-24T11:13:50.556Z,4.17
2023-04-24T11:16:23.019Z,6.50
2023-04-24T11:18:55.196Z,9.50
2023-04-24T11:21:23.587Z,4.57
2023-04-24T11:23:53.184Z,6.90
2023-04-24T11:26:25.586Z,5.07
2023-04-24T11:28:54.002Z,6.43
2023-04-24T11:31:38.749Z,6.83
2023-04-24T11:34:10.768Z,5.07
2023-04-24T11:36:39.186Z,7.23
2023-04-24T11:39:07.936Z,3.97
2023-04-24T11:41:37.831Z,7.07
2023-04-24T11:44:06.415Z,11.23
2023-04-24T11:46:37.719Z,10.07
2023-04-24T11:49:07.956Z,5.67
2023-04-24T11:51:44.565Z,12.13
2023-04-24T11:54:19.918Z,14.33
2023-04-24T11:56:50.352Z,7.33
2023-04-24T11:59:18.791Z,8.47
2023-04-24T12:01:47.598Z,7.93
2023-04-24T12:04:16.313Z,12.33
2023-04-24T12:06:59.690Z,7.47
2023-04-24T12:09:28.060Z,14.37
2023-04-24T12:11:58.114Z,14.13
2023-04-24T12:14:26.599Z,8.53
2023-04-24T12:16:55.048Z,12.13
2023-04-24T12:19:23.626Z,8.40
2023-04-24T12:22:02.509Z,13.67
2023-04-24T12:24:31.849Z,14.80
2023-04-24T12:27:02.686Z,13.57
2023-04-24T12:29:31.136Z,8.70
2023-04-24T12:31:59.491Z,12.43
2023-04-24T12:34:27.890Z,12.23
2023-04-24T12:36:56.398Z,10.50
2023-04-24T12:39:27.733Z,15.23
2023-04-24T12:41:59.259Z,15.10
2023-04-24T12:44:35.788Z,12.33
2023-04-24T12:47:04.789Z,17.97
2023-04-24T12:49:33.553Z,12.70
2023-04-24T12:52:01.898Z,11.87
2023-04-24T12:54:35.203Z,12.50
2023-04-24T12:57:03.623Z,9.23
2023-04-24T12:59:32.144Z,13.23
2023-04-24T13:02:02.041Z,16.23
2023-04-24T13:04:30.652Z,13.10
2023-04-24T13:06:59.337Z,12.57
2023-04-24T13:09:27.689Z,13.63
2023-04-24T13:11:56.333Z,11.77
2023-04-24T13:14:24.706Z,12.13
2023-04-24T13:16:53.524Z,9.47
2023-04-24T13:19:23.579Z,12.87
2023-04-24T13:21:51.900Z,13.43
2023-04-24T13:24:21.090Z,15.07
2023-04-24T13:26:49.578Z,14.50
2023-04-24T13:29:17.981Z,10.20
2023-04-24T13:31:46.618Z,8.80
2023-04-24T13:34:15.456Z,8.07
2023-04-24T13:36:45.331Z,7.43
2023-04-24T13:39:13.916Z,8.77
2023-04-24T13:41:42.373Z,8.47
2023-04-24T13:44:10.748Z,8.13
2023-04-24T13:46:39.198Z,7.00
2023-04-24T13:49:07.605Z,9.33
2023-04-24T13:51:35.932Z,10.87
2023-04-24T13:54:05.831Z,11.93
2023-04-24T13:56:34.293Z,13.13
2023-04-24T13:59:03.290Z,20.90
2023-04-24T14:01:31.836Z,13.73
2023-04-24T14:04:01.017Z,14.20
2023-04-24T14:06:29.693Z,16.40
2023-04-24T14:08:58.078Z,12.73
2023-04-24T14:11:28.033Z,23.80
2023-04-24T14:13:57.310Z,9.70
2023-04-24T14:16:25.885Z,11.70
2023-04-24T14:18:54.485Z,12.97
2023-04-24T14:21:23.053Z,13.67
2023-04-24T14:23:52.081Z,14.83
2023-04-24T14:26:20.538Z,16.40
2023-04-24T14:28:51.223Z,14.80
2023-04-24T14:31:20.946Z,16.60
2023-04-24T14:33:49.530Z,13.63
2023-04-24T14:36:18.041Z,16.00
2023-04-24T14:38:46.580Z,15.40
2023-04-24T14:41:16.543Z,14.00
2023-04-24T14:43:45.135Z,13.87
2023-04-24T14:46:15.151Z,11.60
2023-04-24T14:48:43.679Z,12.77
2023-04-24T14:51:12.074Z,14.87
2023-04-24T14:53:40.436Z,10.03
2023-04-24T14:56:09.146Z,10.77
2023-04-24T14:58:37.587Z,12.13
2023-04-24T15:01:06.243Z,14.50
2023-04-24T15:03:36.237Z,15.33
2023-04-24T15:06:04.795Z,14.70
2023-04-24T15:08:33.607Z,13.77
2023-04-24T15:11:01.998Z,17.97
2023-04-24T15:13:30.537Z,15.63
2023-04-24T15:15:58.917Z,16.03
2023-04-24T15:18:29.026Z,18.33
2023-04-24T15:20:58.948Z,20.10
2023-04-24T15:23:27.329Z,13.50
2023-04-24T15:25:55.839Z,16.33
2023-04-24T15:28:24.292Z,19.70
2023-04-24T15:30:52.978Z,14.03
2023-04-24T15:33:21.841Z,11.67
2023-04-24T15:35:51.324Z,16.07
2023-04-24T15:38:21.203Z,15.97
2023-04-24T15:40:50.642Z,15.57
2023-04-24T15:43:19.283Z,16.60
2023-04-24T15:45:47.956Z,12.30
2023-04-24T15:48:16.538Z,9.13
2023-04-24T15:50:45.189Z,14.13
2023-04-24T15:53:13.598Z,9.00
2023-04-24T15:55:43.454Z,11.57
2023-04-24T15:58:11.951Z,14.67
2023-04-24T16:00:40.946Z,11.17
2023-04-24T16:03:10.386Z,14.57
2023-04-24T16:05:39.003Z,14.97
2023-04-24T16:08:07.637Z,13.23
2023-04-24T16:10:36.195Z,14.40
2023-04-24T16:13:06.576Z,12.67
2023-04-24T16:15:36.246Z,13.00
2023-04-24T16:18:04.765Z,13.03
2023-04-24T16:20:33.268Z,14.77
2023-04-24T16:23:01.720Z,12.73
2023-04-24T16:25:30.335Z,17.57
2023-04-24T16:27:58.807Z,15.90
2023-04-24T16:30:28.643Z,16.27
2023-04-24T16:32:57.116Z,18.27
2023-04-24T16:35:25.717Z,19.00
2023-04-24T16:37:54.134Z,15.73
2023-04-24T16:40:22.529Z,18.73
2023-04-24T16:42:52.760Z,17.83
2023-04-24T16:45:21.365Z,17.80
2023-04-24T16:47:51.243Z,13.83
2023-04-24T16:50:19.750Z,19.93
2023-04-24T16:52:48.159Z,14.50
2023-04-24T16:55:16.622Z,14.87
2023-04-24T16:57:45.212Z,13.10
2023-04-24T17:00:14.268Z,15.97
2023-04-24T17:02:43.925Z,12.67
2023-04-24T17:05:13.747Z,15.10
2023-04-24T17:07:48.258Z,18.90
2023-04-24T17:10:16.629Z,16.00
2023-04-24T17:12:45.303Z,15.00
2023-04-24T17:15:13.714Z,14.90
2023-04-24T17:17:44.329Z,22.63
2023-04-24T17:20:22.282Z,15.73
2023-04-24T17:22:52.182Z,17.20
2023-04-24T17:25:21.174Z,16.60
2023-04-24T17:27:49.644Z,15.57
2023-04-24T17:30:18.725Z,14.50
2023-04-24T17:32:47.259Z,15.30
2023-04-24T17:35:17.388Z,15.97
2023-04-24T17:37:45.853Z,9.40
2023-04-24T17:40:14.456Z,8.10
2023-04-24T17:42:42.864Z,11.37
2023-04-24T17:45:12.157Z,14.73
2023-04-24T17:47:41.196Z,11.87
2023-04-24T17:50:10.179Z,12.77
2023-04-24T17:52:40.089Z,15.27
2023-04-24T17:55:08.853Z,20.30
2023-04-24T17:57:37.579Z,14.27
2023-04-24T18:00:06.622Z,20.50
2023-04-24T18:02:36.466Z,23.43
2023-04-24T18:05:05.077Z,11.30
2023-04-24T18:07:34.105Z,13.47
2023-04-24T18:10:03.974Z,13.73
2023-04-24T18:12:32.511Z,15.77
2023-04-24T18:15:13.266Z,15.77
2023-04-24T18:17:42.662Z,19.17
2023-04-24T18:20:11.996Z,8.83
2023-04-24T18:22:40.391Z,11.67
2023-04-24T18:25:10.930Z,12.83
2023-04-24T18:27:39.428Z,11.20
2023-04-24T18:30:08.492Z,13.77
2023-04-24T18:32:36.964Z,11.40
2023-04-24T18:35:05.474Z,10.47
2023-04-24T18:37:34.205Z,10.53
2023-04-24T18:40:03.568Z,13.67
2023-04-24T18:42:33.325Z,8.00
2023-04-24T18:45:02.400Z,12.17
2023-04-24T18:47:30.873Z,5.73
2023-04-24T18:49:59.299Z,10.77
2023-04-24T18:52:27.709Z,8.50
2023-04-24T18:54:56.085Z,6.03
2023-04-24T18:57:30.614Z,8.20
2023-04-24T19:00:00.715Z,10.13
2023-04-24T19:02:29.322Z,8.43
2023-04-24T19:04:58.002Z,9.47
2023-04-24T19:07:26.524Z,13.67
2023-04-24T19:09:54.990Z,8.50
2023-04-24T19:12:23.429Z,7.87
2023-04-24T19:14:56.017Z,6.53
2023-04-24T19:17:26.038Z,6.20
2023-04-24T19:19:54.585Z,7.83
2023-04-24T19:22:23.085Z,12.37
2023-04-24T19:24:51.582Z,14.07
2023-04-24T19:27:19.946Z,10.43
2023-04-24T19:29:48.461Z,10.93
2023-04-24T19:32:17.192Z,9.57
2023-04-24T19:34:47.257Z,11.63
2023-04-24T19:37:15.639Z,11.97
2023-04-24T19:39:44.142Z,14.70
2023-04-24T19:42:12.786Z,12.80
2023-04-24T19:44:41.173Z,12.30
2023-04-24T19:47:09.828Z,13.67
2023-04-24T19:49:38.249Z,15.03
2023-04-24T19:52:08.253Z,10.93
2023-04-24T19:54:36.705Z,11.30
2023-04-24T19:57:05.484Z,10.27
2023-04-24T19:59:34.181Z,9.90
2023-04-24T20:02:02.583Z,14.70
2023-04-24T20:04:36.862Z,11.00
2023-04-24T20:07:05.574Z,11.57
2023-04-24T20:09:35.480Z,10.83
2023-04-24T20:12:03.971Z,13.93
2023-04-24T20:14:33.035Z,7.90
2023-04-24T20:17:01.948Z,10.93
2023-04-24T20:19:30.701Z,10.23
2023-04-24T20:22:01.645Z,9.50
2023-04-24T20:24:30.318Z,10.70
2023-04-24T20:27:00.214Z,12.53
2023-04-24T20:29:28.876Z,11.23
2023-04-24T20:31:57.587Z,10.57
2023-04-24T20:34:26.392Z,8.37
2023-04-24T20:36:56.614Z,13.43
2023-04-24T20:39:25.021Z,14.23
2023-04-24T20:41:56.506Z,15.67
2023-04-24T20:44:26.238Z,10.43
2023-04-24T20:46:54.774Z,11.43
2023-04-24T20:49:23.201Z,15.63
2023-04-24T20:51:51.682Z,12.53
2023-04-24T20:54:19.980Z,12.83
2023-04-24T20:56:48.613Z,18.40
2023-04-24T20:59:16.995Z,10.63
2023-04-24T21:01:48.753Z,11.13
2023-04-24T21:04:17.289Z,12.23
2023-04-24T21:06:45.748Z,11.87
2023-04-24T21:09:14.156Z,14.40
2023-04-24T21:11:43.403Z,9.60
2023-04-24T21:14:11.973Z,9.77
2023-04-24T21:16:40.521Z,12.63
2023-04-24T21:19:10.345Z,11.67
2023-04-24T21:21:38.737Z,13.33
2023-04-24T21:24:07.580Z,10.00
2023-04-24T21:26:35.984Z,17.10
2023-04-24T21:29:04.360Z,10.23
2023-04-24T21:31:32.715Z,11.17
2023-04-24T21:34:01.274Z,18.67
2023-04-24T21:36:32.700Z,9.83
2023-04-24T21:39:01.386Z,12.97
2023-04-24T21:41:29.777Z,15.40
2023-04-24T21:43:59.239Z,17.27
2023-04-24T21:46:27.635Z,12.40
2023-04-24T21:48:55.931Z,12.83
2023-04-24T21:51:24.269Z,17.50
2023-04-24T21:53:53.993Z,15.33
2023-04-24T21:56:22.339Z,17.23
2023-04-24T21:58:50.728Z,13.70
2023-04-24T22:01:19.189Z,16.10
2023-04-24T22:03:48.053Z,17.60
2023-04-24T22:06:16.811Z,14.83
2023-04-24T22:08:47.720Z,19.87
2023-04-24T22:11:26.759Z,16.53
2023-04-24T22:13:55.657Z,17.57
2023-04-24T22:16:24.744Z,22.50
2023-04-24T22:18:55.267Z,18.87
2023-04-24T22:21:24.057Z,19.67
2023-04-24T22:23:52.838Z,17.63
2023-04-24T22:26:22.726Z,15.57
2023-04-24T22:28:51.255Z,21.90
2023-04-24T22:31:19.632Z,21.63
2023-04-24T22:33:48.244Z,20.13
2023-04-24T22:36:16.850Z,23.00
2023-04-24T22:38:45.207Z,15.70
2023-04-24T22:41:13.752Z,23.90
2023-04-24T22:43:43.720Z,18.40
2023-04-24T22:46:12.171Z,20.17
2023-04-24T22:48:40.532Z,19.93
2023-04-24T22:51:08.971Z,15.10
2023-04-24T22:53:37.387Z,17.10
2023-04-24T22:56:06.033Z,21.43
2023-04-24T22:58:34.474Z,16.37
2023-04-24T23:01:04.364Z,16.73
2023-04-24T23:03:33.284Z,27.43
2023-04-24T23:06:02.007Z,20.70
2023-04-24T23:08:31.073Z,17.97
2023-04-24T23:10:59.456Z,16.37
2023-04-24T23:13:28.044Z,18.73
2023-04-24T23:15:56.661Z,22.13
2023-04-24T23:18:26.777Z,19.80
2023-04-24T23:20:55.149Z,19.53
2023-04-24T23:23:23.622Z,23.13
2023-04-24T23:25:52.165Z,16.40
2023-04-24T23:28:21.454Z,16.13
2023-04-24T23:30:49.930Z,19.73
2023-04-24T23:33:18.324Z,16.07
2023-04-24T23:35:48.033Z,18.07
2023-04-24T23:38:16.372Z,17.97
2023-04-24T23:40:44.945Z,22.60
2023-04-24T23:43:13.641Z,21.87
2023-04-24T23:45:42.273Z,19.97
2023-04-24T23:48:10.774Z,12.30
2023-04-24T23:50:39.444Z,11.33
2023-04-24T23:53:09.206Z,16.90
2023-04-24T23:55:37.629Z,13.27
2023-04-24T23:58:06.351Z,12.97
